Time;durP1;ratioP1;P1;durP2;ratioP2;P2;SDS_P1;SDS_P2;PMS_P1;PMS_P2;Temp;Humidity;BMP_temperature;BMP_pressure;BME280_temperature;BME280_humidity;BME280_pressure;Samples;Min_cycle;Max_cycle;Signal;HPM_P1;HPM_P2
2024/01/06 00:01:37;;;;;;;5.13;2.57;;;7.90;99.90;;;;;;5038034;28;20657;-68
2024/01/06 00:04:03;;;;;;;4.73;3.60;;;8.10;99.90;;;;;;5056268;28;20186;-69
2024/01/06 00:06:29;;;;;;;6.33;3.17;;;8.20;99.90;;;;;;5056160;28;20576;-69
2024/01/06 00:08:54;;;;;;;3.23;2.23;;;8.20;99.90;;;;;;5029288;28;20191;-68
2024/01/06 00:11:21;;;;;;;3.97;2.33;;;8.10;99.90;;;;;;5009181;28;20672;-68
2024/01/06 00:13:47;;;;;;;2.73;1.90;;;8.00;99.90;;;;;;5052663;28;20614;-68
2024/01/06 00:16:12;;;;;;;3.60;2.30;;;7.80;99.90;;;;;;5037859;28;20439;-68
2024/01/06 00:18:39;;;;;;;5.40;2.77;;;7.90;99.90;;;;;;5055898;28;20972;-68
2024/01/06 00:21:05;;;;;;;3.87;1.93;;;7.90;99.90;;;;;;5041520;28;20182;-68
2024/01/06 00:23:30;;;;;;;4.57;2.20;;;8.00;99.90;;;;;;5055711;28;20908;-68
2024/01/06 00:25:56;;;;;;;2.83;2.53;;;8.20;99.90;;;;;;5054925;28;20189;-68
2024/01/06 00:28:22;;;;;;;3.33;2.57;;;8.30;99.90;;;;;;5055556;28;20664;-68
2024/01/06 00:30:47;;;;;;;3.17;2.17;;;8.30;99.90;;;;;;5053683;28;20416;-68
2024/01/06 00:33:13;;;;;;;4.73;2.27;;;8.30;99.90;;;;;;5043383;28;20203;-68
2024/01/06 00:35:39;;;;;;;2.97;2.03;;;8.30;99.90;;;;;;5034846;28;20196;-68
2024/01/06 00:38:05;;;;;;;4.13;2.13;;;8.30;99.90;;;;;;5035733;28;20237;-68
2024/01/06 00:40:32;;;;;;;2.73;2.33;;;8.30;99.90;;;;;;5017895;28;20179;-68
2024/01/06 00:42:58;;;;;;;4.03;2.00;;;8.30;99.90;;;;;;5053945;28;20178;-69
2024/01/06 00:45:24;;;;;;;4.17;2.30;;;8.10;99.90;;;;;;5055539;28;20531;-69
2024/01/06 00:47:49;;;;;;;5.47;2.50;;;8.30;99.90;;;;;;5055313;28;20444;-69
2024/01/06 00:50:16;;;;;;;5.60;3.03;;;8.30;99.90;;;;;;5055334;28;20196;-69
2024/01/06 00:52:42;;;;;;;3.33;1.90;;;8.40;99.90;;;;;;5040206;28;20325;-69
2024/01/06 00:55:08;;;;;;;4.10;2.10;;;8.40;99.90;;;;;;5035175;28;20906;-68
2024/01/06 00:57:34;;;;;;;3.13;1.90;;;8.40;99.90;;;;;;5035062;28;20167;-68
2024/01/06 01:00:00;;;;;;;2.93;1.63;;;8.40;99.90;;;;;;5035469;28;20406;-69
2024/01/06 01:02:25;;;;;;;2.90;1.53;;;8.40;99.90;;;;;;5048835;28;20241;-69
2024/01/06 01:04:52;;;;;;;4.67;2.17;;;8.30;99.90;;;;;;5054125;28;20305;-69
2024/01/06 01:07:18;;;;;;;3.47;1.77;;;8.30;99.90;;;;;;5055282;28;20163;-69
2024/01/06 01:09:44;;;;;;;3.10;1.50;;;8.30;99.90;;;;;;5055260;28;20415;-70
2024/01/06 01:12:09;;;;;;;3.73;1.70;;;8.40;99.90;;;;;;5044399;28;20624;-70
2024/01/06 01:14:35;;;;;;;5.50;1.60;;;8.40;99.90;;;;;;5035131;28;20522;-71
2024/01/06 01:17:00;;;;;;;3.33;1.60;;;8.30;99.90;;;;;;5036359;28;20178;-70
2024/01/06 01:19:26;;;;;;;2.40;1.47;;;8.30;99.90;;;;;;5038169;28;20720;-71
2024/01/06 01:21:55;;;;;;;2.40;1.60;;;8.30;99.90;;;;;;5054796;28;20167;-70
2024/01/06 01:24:21;;;;;;;4.57;1.73;;;8.30;99.90;;;;;;5055056;28;20179;-70
2024/01/06 01:26:47;;;;;;;3.43;1.87;;;8.30;99.90;;;;;;5054119;28;20421;-70
2024/01/06 01:29:13;;;;;;;5.70;1.80;;;8.40;99.90;;;;;;5036501;28;20461;-70
2024/01/06 01:31:39;;;;;;;2.17;1.77;;;8.30;99.90;;;;;;5054761;28;20404;-69
2024/01/06 01:34:04;;;;;;;4.00;1.80;;;8.20;99.90;;;;;;5054731;28;20683;-71
2024/01/06 01:36:30;;;;;;;2.70;1.70;;;8.20;99.90;;;;;;5037328;28;20203;-70
2024/01/06 01:38:56;;;;;;;5.60;2.00;;;8.30;99.90;;;;;;5046299;28;20232;-71
2024/01/06 01:41:21;;;;;;;2.80;2.17;;;8.10;99.90;;;;;;5048871;28;20553;-71
2024/01/06 01:43:47;;;;;;;3.43;1.70;;;8.10;99.90;;;;;;5035051;28;20636;-72
2024/01/06 01:46:13;;;;;;;8.87;2.77;;;8.00;99.90;;;;;;5034686;28;20252;-71
2024/01/06 01:48:39;;;;;;;3.40;1.90;;;8.00;99.90;;;;;;5034964;28;20266;-70
2024/01/06 01:51:06;;;;;;;2.77;1.70;;;8.10;99.90;;;;;;5047287;28;20417;-72
2024/01/06 01:53:32;;;;;;;2.23;1.40;;;8.10;99.90;;;;;;5054344;28;20459;-70
2024/01/06 01:55:58;;;;;;;3.87;1.90;;;8.10;99.90;;;;;;5054397;28;20795;-70
2024/01/06 01:58:24;;;;;;;3.13;1.70;;;8.00;99.90;;;;;;5054331;28;20171;-71
2024/01/06 02:00:50;;;;;;;2.60;1.70;;;8.10;99.90;;;;;;5054192;28;20912;-69
2024/01/06 02:03:16;;;;;;;3.90;1.87;;;8.10;99.90;;;;;;5034877;28;20183;-70
2024/01/06 02:05:42;;;;;;;10.60;1.50;;;8.00;99.90;;;;;;5034255;28;20467;-70
2024/01/06 02:08:08;;;;;;;3.20;1.70;;;8.00;99.90;;;;;;5033775;28;20908;-70
2024/01/06 02:10:34;;;;;;;6.20;1.83;;;8.00;99.90;;;;;;5034430;28;20180;-71
2024/01/06 02:13:09;;;;;;;3.93;1.80;;;8.00;99.90;;;;;;5051665;28;20462;-71
2024/01/06 02:15:34;;;;;;;2.33;1.67;;;8.00;99.90;;;;;;5051465;28;20429;-69
2024/01/06 02:18:00;;;;;;;7.00;2.27;;;8.00;99.90;;;;;;5034397;28;20966;-71
2024/01/06 02:20:26;;;;;;;1.97;1.50;;;8.00;99.90;;;;;;5034062;28;20168;-70
2024/01/06 02:22:52;;;;;;;3.07;1.83;;;8.00;99.90;;;;;;5049900;28;20209;-70
2024/01/06 02:25:18;;;;;;;5.30;1.57;;;8.10;99.90;;;;;;5054220;28;20504;-70
2024/01/06 02:27:44;;;;;;;3.23;1.53;;;8.00;99.90;;;;;;5053180;28;20653;-71
2024/01/06 02:30:09;;;;;;;2.93;1.50;;;8.10;99.90;;;;;;5052595;28;20178;-70
2024/01/06 02:32:35;;;;;;;2.57;1.80;;;8.10;99.90;;;;;;5052981;28;20252;-68
2024/01/06 02:35:01;;;;;;;3.20;1.60;;;8.00;99.90;;;;;;5053427;28;20457;-68
2024/01/06 02:37:26;;;;;;;4.30;1.90;;;8.10;99.90;;;;;;5051721;28;20173;-68
2024/01/06 02:39:53;;;;;;;3.90;1.50;;;8.00;99.90;;;;;;5042637;28;20198;-69
2024/01/06 02:42:19;;;;;;;3.10;1.63;;;7.90;99.90;;;;;;5041758;28;20175;-68
2024/01/06 02:44:44;;;;;;;4.20;1.57;;;8.00;99.90;;;;;;5033331;28;20444;-68
2024/01/06 02:47:10;;;;;;;5.80;2.17;;;8.10;99.90;;;;;;5034163;28;20421;-67
2024/01/06 02:49:36;;;;;;;3.70;1.30;;;8.20;99.90;;;;;;5050316;28;20233;-68
2024/01/06 02:52:01;;;;;;;4.00;1.97;;;8.30;99.90;;;;;;5050991;28;20178;-68
2024/01/06 02:54:27;;;;;;;7.73;1.90;;;8.00;99.90;;;;;;5053187;28;20163;-68
2024/01/06 02:56:52;;;;;;;5.57;1.57;;;8.00;99.90;;;;;;5035114;28;20185;-68
2024/01/06 02:59:18;;;;;;;1.70;1.57;;;8.00;99.90;;;;;;5052052;28;20175;-68
2024/01/06 03:01:43;;;;;;;3.03;1.77;;;8.00;99.90;;;;;;5040111;28;20265;-69
2024/01/06 03:04:09;;;;;;;4.40;1.57;;;8.10;99.90;;;;;;5047636;28;20211;-69
2024/01/06 03:06:35;;;;;;;3.47;1.60;;;8.10;99.90;;;;;;5072680;22;20253;-69
2024/01/06 03:09:00;;;;;;;1.77;1.60;;;8.10;99.90;;;;;;5053574;28;20653;-70
2024/01/06 03:11:26;;;;;;;5.53;1.93;;;8.10;99.90;;;;;;5065206;28;20401;-69
2024/01/06 03:13:51;;;;;;;3.00;2.07;;;8.10;99.90;;;;;;5053929;28;20212;-70
2024/01/06 03:16:17;;;;;;;3.13;1.50;;;8.10;99.90;;;;;;5053328;28;20236;-69
2024/01/06 03:18:43;;;;;;;2.90;1.60;;;8.10;99.90;;;;;;5066302;28;20243;-69
2024/01/06 03:21:21;;;;;;;7.33;1.63;;;8.10;99.90;;;;;;5075387;28;20552;-69
2024/01/06 03:23:48;;;;;;;4.57;1.77;;;8.10;99.90;;;;;;5074477;28;20182;-69
2024/01/06 03:26:14;;;;;;;2.23;1.97;;;7.90;99.90;;;;;;5077984;28;20967;-70
2024/01/06 03:28:40;;;;;;;5.57;2.20;;;7.80;99.90;;;;;;5077540;28;20498;-69
2024/01/06 03:31:05;;;;;;;4.60;2.37;;;7.90;99.90;;;;;;5077606;28;20248;-69
2024/01/06 03:33:31;;;;;;;3.07;2.20;;;7.90;99.90;;;;;;5056881;28;20208;-69
2024/01/06 03:35:56;;;;;;;4.07;2.33;;;7.90;99.90;;;;;;5072954;28;20333;-68
2024/01/06 03:38:22;;;;;;;2.10;1.83;;;7.70;99.90;;;;;;5076950;28;20652;-69
2024/01/06 03:40:47;;;;;;;3.33;2.03;;;7.90;99.90;;;;;;5063056;28;20228;-69
2024/01/06 03:43:13;;;;;;;2.57;1.30;;;7.90;99.90;;;;;;5057341;28;20185;-69
2024/01/06 03:45:39;;;;;;;4.33;2.40;;;8.00;99.90;;;;;;5057155;28;20201;-71
2024/01/06 03:48:05;;;;;;;3.73;2.00;;;7.90;99.90;;;;;;5076232;28;20185;-70
2024/01/06 03:50:30;;;;;;;3.10;1.53;;;7.80;99.90;;;;;;5076431;28;20234;-70
2024/01/06 03:52:56;;;;;;;4.30;2.03;;;7.90;99.90;;;;;;5061557;28;20445;-70
2024/01/06 03:55:22;;;;;;;4.37;2.13;;;8.00;99.90;;;;;;5056723;28;20603;-70
2024/01/06 03:57:47;;;;;;;2.10;1.90;;;7.90;99.90;;;;;;5059749;28;20208;-70
2024/01/06 04:00:13;;;;;;;3.10;1.90;;;8.00;99.90;;;;;;5076374;28;20627;-70
2024/01/06 04:02:39;;;;;;;5.40;1.93;;;7.90;99.90;;;;;;5064580;28;20621;-69
2024/01/06 04:05:05;;;;;;;3.63;1.47;;;7.90;99.90;;;;;;5056357;28;20506;-69
2024/01/06 04:07:31;;;;;;;2.33;1.77;;;7.80;99.90;;;;;;5057818;28;20158;-69
2024/01/06 04:09:56;;;;;;;1.80;1.70;;;7.80;99.90;;;;;;5065187;28;20419;-69
2024/01/06 04:12:22;;;;;;;2.77;1.70;;;7.80;99.90;;;;;;5065942;28;20198;-69
2024/01/06 04:14:47;;;;;;;2.90;1.50;;;7.80;99.90;;;;;;5056403;28;20636;-69
2024/01/06 04:17:13;;;;;;;7.87;1.90;;;7.70;99.90;;;;;;5056479;28;20604;-69
2024/01/06 04:19:38;;;;;;;2.57;1.83;;;7.60;99.90;;;;;;5074764;28;20530;-70
2024/01/06 04:22:04;;;;;;;3.77;1.97;;;7.70;99.90;;;;;;5075544;28;20652;-71
2024/01/06 04:24:30;;;;;;;2.97;2.07;;;7.70;99.90;;;;;;5077242;28;20352;-70
2024/01/06 04:26:55;;;;;;;4.70;2.00;;;7.70;99.90;;;;;;5076511;28;20197;-70
2024/01/06 04:29:21;;;;;;;3.10;1.43;;;7.60;99.90;;;;;;5076069;28;20182;-69
2024/01/06 04:31:47;;;;;;;3.77;1.87;;;7.70;99.90;;;;;;5070919;28;20178;-69
2024/01/06 04:34:12;;;;;;;2.33;1.87;;;7.70;99.90;;;;;;5063975;28;20205;-70
2024/01/06 04:36:38;;;;;;;3.10;1.80;;;7.70;99.90;;;;;;5076275;28;20188;-69
2024/01/06 04:39:04;;;;;;;1.70;1.60;;;7.60;99.90;;;;;;5076206;28;20206;-69
2024/01/06 04:41:29;;;;;;;3.97;2.10;;;7.50;99.90;;;;;;5073464;28;20173;-70
2024/01/06 04:43:55;;;;;;;4.10;1.80;;;7.50;99.90;;;;;;5056588;28;20173;-70
2024/01/06 04:46:21;;;;;;;4.00;1.63;;;7.60;99.90;;;;;;5063747;28;20212;-70
2024/01/06 04:48:47;;;;;;;7.13;2.17;;;7.50;99.90;;;;;;5065532;28;20174;-69
2024/01/06 04:51:13;;;;;;;6.80;1.80;;;7.50;99.90;;;;;;5075332;28;20184;-69
2024/01/06 04:53:40;;;;;;;2.90;1.60;;;7.40;99.90;;;;;;5056422;28;20533;-69
2024/01/06 04:56:05;;;;;;;3.10;1.70;;;7.40;99.90;;;;;;5055989;28;20432;-69
2024/01/06 04:58:31;;;;;;;7.90;2.23;;;7.40;99.90;;;;;;5066772;28;20410;-70
2024/01/06 05:00:57;;;;;;;3.50;2.03;;;7.40;99.90;;;;;;5075980;28;20183;-68
2024/01/06 05:03:22;;;;;;;2.60;1.63;;;7.40;99.90;;;;;;5057896;28;20225;-69
2024/01/06 05:05:48;;;;;;;2.70;1.57;;;7.40;99.90;;;;;;5056911;28;20451;-69
2024/01/06 05:08:14;;;;;;;3.30;1.53;;;7.40;99.90;;;;;;5057520;28;20182;-69
2024/01/06 05:10:39;;;;;;;5.00;1.80;;;7.50;99.90;;;;;;5075758;28;20177;-69
2024/01/06 05:13:05;;;;;;;5.57;1.90;;;7.30;99.90;;;;;;5060618;28;20289;-68
2024/01/06 05:15:30;;;;;;;4.40;1.77;;;7.30;99.90;;;;;;5070406;28;20197;-69
2024/01/06 05:17:56;;;;;;;2.20;1.50;;;7.40;99.90;;;;;;5075108;28;20650;-70
2024/01/06 05:20:21;;;;;;;2.73;1.80;;;7.50;99.90;;;;;;5075127;28;20210;-70
2024/01/06 05:22:47;;;;;;;2.87;1.90;;;7.50;99.90;;;;;;5062142;28;20597;-70
2024/01/06 05:25:13;;;;;;;2.20;1.50;;;7.40;99.90;;;;;;5055397;28;20189;-70
2024/01/06 05:27:39;;;;;;;4.77;1.93;;;7.50;99.90;;;;;;5049959;28;20234;-69
2024/01/06 05:30:06;;;;;;;4.33;2.03;;;7.40;99.90;;;;;;5056550;28;20175;-70
2024/01/06 05:32:31;;;;;;;1.87;1.40;;;7.50;99.90;;;;;;5064833;28;20732;-69
2024/01/06 05:34:57;;;;;;;3.10;1.53;;;7.40;99.90;;;;;;5054998;28;20408;-68
2024/01/06 05:37:22;;;;;;;3.23;1.70;;;7.60;99.90;;;;;;5055169;28;20555;-71
2024/01/06 05:39:48;;;;;;;2.13;1.60;;;7.60;99.90;;;;;;5071410;28;20252;-70
2024/01/06 05:42:17;;;;;;;5.50;1.70;;;7.60;99.90;;;;;;5067044;28;20668;-70
2024/01/06 05:44:42;;;;;;;4.17;2.03;;;7.60;99.90;;;;;;5054411;28;20165;-70
2024/01/06 05:47:08;;;;;;;2.67;1.30;;;7.60;99.90;;;;;;5054327;28;20473;-70
2024/01/06 05:49:33;;;;;;;4.90;1.50;;;7.60;99.90;;;;;;5068774;28;20191;-70
2024/01/06 05:51:59;;;;;;;2.60;1.63;;;7.70;99.90;;;;;;5069176;28;20180;-69
2024/01/06 05:54:25;;;;;;;2.27;1.97;;;7.70;99.90;;;;;;5073754;28;20169;-70
2024/01/06 05:56:51;;;;;;;12.37;7.60;;;7.70;99.90;;;;;;5074019;28;20198;-69
2024/01/06 05:59:16;;;;;;;6.53;2.53;;;7.80;99.90;;;;;;5073475;28;20587;-70
2024/01/06 06:01:43;;;;;;;4.60;1.97;;;7.70;99.90;;;;;;5039933;28;20193;-70
2024/01/06 06:04:12;;;;;;;2.53;1.50;;;7.70;99.90;;;;;;5053887;28;20162;-69
2024/01/06 06:06:37;;;;;;;3.33;1.53;;;7.80;99.90;;;;;;5053836;28;20893;-69
2024/01/06 06:09:06;;;;;;;2.87;1.70;;;7.80;99.90;;;;;;5058876;28;20997;-69
2024/01/06 06:11:33;;;;;;;3.73;2.00;;;7.80;99.90;;;;;;5071806;28;20176;-69
2024/01/06 06:13:58;;;;;;;2.90;1.33;;;7.70;99.90;;;;;;5053671;28;20454;-70
2024/01/06 06:16:24;;;;;;;2.27;1.70;;;7.80;99.90;;;;;;5053834;28;20950;-69
2024/01/06 06:18:50;;;;;;;3.03;2.00;;;7.80;99.90;;;;;;5054362;28;20167;-69
2024/01/06 06:21:15;;;;;;;2.07;1.70;;;7.80;99.90;;;;;;5074068;28;20630;-70
2024/01/06 06:23:41;;;;;;;2.13;1.77;;;7.70;99.90;;;;;;5063232;28;20165;-69
2024/01/06 06:26:07;;;;;;;1.93;1.60;;;7.70;99.90;;;;;;5074123;28;20450;-70
2024/01/06 06:28:34;;;;;;;5.27;2.10;;;7.80;99.90;;;;;;5055967;28;20182;-70
2024/01/06 06:31:01;;;;;;;2.20;2.00;;;7.80;99.90;;;;;;5073466;28;20498;-70
2024/01/06 06:33:27;;;;;;;2.20;1.60;;;7.90;99.90;;;;;;5037515;28;20499;-70
2024/01/06 06:35:52;;;;;;;7.13;1.90;;;7.80;99.90;;;;;;5062846;28;20431;-69
2024/01/06 06:38:18;;;;;;;2.90;1.47;;;7.90;99.90;;;;;;5073508;28;20656;-69
2024/01/06 06:40:43;;;;;;;3.23;1.57;;;7.90;99.90;;;;;;5073271;28;20714;-69
2024/01/06 06:43:09;;;;;;;12.63;2.80;;;7.90;99.90;;;;;;5069515;28;20169;-69
2024/01/06 06:45:35;;;;;;;3.27;1.80;;;7.90;99.90;;;;;;5056172;28;20271;-70
2024/01/06 06:48:00;;;;;;;2.73;1.80;;;7.90;99.90;;;;;;5073057;28;20227;-70
2024/01/06 06:50:26;;;;;;;2.97;1.73;;;7.80;99.90;;;;;;5066245;28;20590;-69
2024/01/06 06:52:52;;;;;;;2.83;1.77;;;7.80;99.90;;;;;;5068002;28;20221;-68
2024/01/06 06:55:18;;;;;;;3.73;1.57;;;7.80;99.90;;;;;;5052740;28;20189;-69
2024/01/06 06:57:45;;;;;;;6.67;1.93;;;7.80;99.90;;;;;;5053567;28;20435;-69
2024/01/06 07:00:11;;;;;;;3.77;2.00;;;7.90;99.90;;;;;;5064484;28;20499;-69
2024/01/06 07:02:36;;;;;;;3.13;1.40;;;7.90;99.90;;;;;;5073482;28;20494;-69
2024/01/06 07:05:02;;;;;;;2.70;1.67;;;7.90;99.90;;;;;;5054177;28;20982;-69
2024/01/06 07:07:28;;;;;;;2.60;1.80;;;7.90;99.90;;;;;;5054813;28;20202;-70
2024/01/06 07:09:54;;;;;;;4.77;1.80;;;7.90;99.90;;;;;;5072895;28;20181;-69
2024/01/06 07:12:19;;;;;;;2.67;2.13;;;7.90;99.90;;;;;;5072869;28;20666;-69
2024/01/06 07:14:45;;;;;;;3.07;1.70;;;7.80;99.90;;;;;;5064964;28;20171;-69
2024/01/06 07:17:10;;;;;;;2.63;1.73;;;7.80;99.90;;;;;;5072570;28;20229;-70
2024/01/06 07:19:38;;;;;;;1.67;1.50;;;7.80;99.90;;;;;;5073089;28;20260;-69
2024/01/06 07:22:05;;;;;;;5.33;1.90;;;7.90;99.90;;;;;;5072698;28;20170;-69
2024/01/06 07:24:30;;;;;;;2.70;2.20;;;8.00;99.90;;;;;;5058414;28;20418;-69
2024/01/06 07:26:56;;;;;;;4.00;1.80;;;8.00;99.90;;;;;;5062613;28;20425;-69
2024/01/06 07:29:22;;;;;;;3.67;1.43;;;8.00;99.90;;;;;;5073058;28;20165;-70
2024/01/06 07:31:47;;;;;;;2.70;1.57;;;8.00;99.90;;;;;;5072836;28;20223;-70
2024/01/06 07:34:13;;;;;;;2.10;1.30;;;8.00;99.90;;;;;;5065847;28;20201;-70
2024/01/06 07:36:39;;;;;;;2.70;1.70;;;7.90;99.90;;;;;;5072973;28;20743;-70
2024/01/06 07:39:05;;;;;;;2.77;1.30;;;7.80;99.90;;;;;;5072785;28;20185;-70
2024/01/06 07:41:32;;;;;;;1.93;1.60;;;7.80;99.90;;;;;;5072695;28;20400;-68
2024/01/06 07:43:57;;;;;;;3.83;2.00;;;7.90;99.90;;;;;;5063123;28;20820;-70
2024/01/06 07:46:24;;;;;;;2.90;1.60;;;7.90;99.90;;;;;;5058689;28;20426;-70
2024/01/06 07:48:49;;;;;;;3.60;1.77;;;8.00;99.90;;;;;;5072616;28;20178;-70
2024/01/06 07:51:17;;;;;;;3.03;2.53;;;8.00;99.90;;;;;;5072604;28;20769;-70
2024/01/06 07:53:42;;;;;;;3.67;2.23;;;8.00;99.90;;;;;;5065028;28;20202;-70
2024/01/06 07:56:08;;;;;;;3.77;2.17;;;8.00;99.90;;;;;;5056773;28;20505;-70
2024/01/06 07:58:34;;;;;;;4.70;4.20;;;8.00;99.90;;;;;;5068032;28;20209;-70
2024/01/06 08:00:59;;;;;;;3.80;3.40;;;7.90;99.90;;;;;;5055850;28;20172;-69
2024/01/06 08:03:25;;;;;;;6.93;3.00;;;8.00;99.90;;;;;;5068073;28;20300;-70
2024/01/06 08:05:50;;;;;;;11.90;7.23;;;8.00;99.90;;;;;;5052672;28;20206;-70
2024/01/06 08:08:16;;;;;;;6.20;3.70;;;8.10;99.90;;;;;;5075558;28;20313;-70
2024/01/06 08:10:43;;;;;;;4.80;2.70;;;8.10;99.90;;;;;;5076357;28;20700;-69
2024/01/06 08:13:08;;;;;;;4.30;2.13;;;8.10;99.90;;;;;;5073601;28;20447;-70
2024/01/06 08:15:34;;;;;;;3.53;2.80;;;7.90;99.90;;;;;;5056070;28;20474;-70
2024/01/06 08:18:00;;;;;;;2.40;2.20;;;7.80;99.90;;;;;;5073542;28;20184;-70
2024/01/06 08:20:25;;;;;;;4.60;3.10;;;7.90;99.90;;;;;;5076070;28;20204;-70
2024/01/06 08:22:51;;;;;;;2.57;1.90;;;8.00;99.90;;;;;;5076094;28;20167;-70
2024/01/06 08:25:17;;;;;;;6.80;2.33;;;8.00;99.90;;;;;;5056016;28;20206;-70
2024/01/06 08:27:43;;;;;;;2.13;1.93;;;7.60;99.90;;;;;;5070246;28;20181;-70
2024/01/06 08:30:09;;;;;;;2.30;1.97;;;7.70;99.90;;;;;;5075797;28;20420;-70
2024/01/06 08:32:35;;;;;;;2.30;2.10;;;7.90;99.90;;;;;;5075753;28;20455;-70
2024/01/06 08:35:00;;;;;;;1.67;1.57;;;7.90;99.90;;;;;;5058353;28;20427;-69
2024/01/06 08:37:26;;;;;;;2.77;1.40;;;8.10;99.90;;;;;;5055997;28;20633;-70
2024/01/06 08:39:51;;;;;;;1.93;1.60;;;7.90;99.90;;;;;;5050264;28;20596;-70
2024/01/06 08:42:17;;;;;;;2.07;1.43;;;7.70;99.90;;;;;;5075206;28;20169;-69
2024/01/06 08:44:43;;;;;;;1.60;1.50;;;7.80;99.90;;;;;;5060779;28;20175;-70
2024/01/06 08:47:09;;;;;;;1.70;1.60;;;8.10;99.90;;;;;;5055812;28;20298;-69
2024/01/06 08:49:35;;;;;;;5.47;1.57;;;8.40;99.90;;;;;;5065393;28;20434;-70
2024/01/06 08:52:00;;;;;;;3.00;1.63;;;8.50;99.90;;;;;;5075217;28;20405;-70
2024/01/06 08:54:26;;;;;;;4.10;2.30;;;8.30;99.90;;;;;;5055513;28;20210;-70
2024/01/06 08:56:51;;;;;;;1.40;1.30;;;8.20;99.90;;;;;;5065045;28;20197;-70
2024/01/06 08:59:17;;;;;;;3.77;1.90;;;8.10;99.90;;;;;;5074569;28;20220;-69
2024/01/06 09:01:43;;;;;;;5.03;1.87;;;8.20;99.90;;;;;;5074404;28;20183;-71
2024/01/06 09:04:11;;;;;;;2.63;1.90;;;8.30;99.90;;;;;;5068509;28;20178;-71
2024/01/06 09:06:36;;;;;;;2.30;1.77;;;8.30;99.90;;;;;;5073679;28;20291;-70
2024/01/06 09:09:02;;;;;;;5.20;2.03;;;8.30;99.90;;;;;;5070750;28;20420;-69
2024/01/06 09:11:28;;;;;;;1.90;1.63;;;8.30;99.90;;;;;;5073545;28;20548;-69
2024/01/06 09:13:53;;;;;;;2.03;1.83;;;8.50;99.90;;;;;;5067151;28;20739;-70
2024/01/06 09:16:20;;;;;;;2.00;1.80;;;8.50;99.90;;;;;;5061519;28;20274;-69
2024/01/06 09:18:45;;;;;;;2.47;1.70;;;8.50;99.90;;;;;;5074873;28;20841;-68
2024/01/06 09:21:11;;;;;;;2.50;1.87;;;8.50;99.90;;;;;;5074838;28;20420;-69
2024/01/06 09:23:37;;;;;;;2.43;1.80;;;8.40;99.90;;;;;;5073386;28;20559;-69
2024/01/06 09:26:02;;;;;;;2.20;1.70;;;8.30;99.90;;;;;;5075216;28;20310;-69
2024/01/06 09:28:28;;;;;;;2.43;1.60;;;8.30;99.90;;;;;;5075206;28;20546;-69
2024/01/06 09:30:55;;;;;;;4.83;1.73;;;8.30;99.90;;;;;;5075095;28;20675;-70
2024/01/06 09:33:22;;;;;;;1.97;1.60;;;8.30;99.90;;;;;;5072174;28;20199;-70
2024/01/06 09:35:48;;;;;;;4.03;1.30;;;8.30;99.90;;;;;;5037189;28;20800;-71
2024/01/06 09:38:13;;;;;;;2.93;1.93;;;8.50;99.90;;;;;;5054304;28;20412;-71
2024/01/06 09:40:44;;;;;;;2.20;1.37;;;8.60;99.90;;;;;;5055382;28;20192;-70
2024/01/06 09:43:10;;;;;;;2.53;1.70;;;8.70;99.90;;;;;;5066457;28;20361;-69
2024/01/06 09:45:36;;;;;;;2.50;1.70;;;8.70;99.90;;;;;;5056498;28;20435;-71
2024/01/06 09:48:13;;;;;;;1.80;1.30;;;8.80;99.90;;;;;;5074941;28;20857;-70
2024/01/06 09:50:44;;;;;;;2.40;1.40;;;8.80;99.90;;;;;;5074483;28;20178;-70
2024/01/06 09:53:11;;;;;;;2.10;1.40;;;8.80;99.90;;;;;;5073494;28;20519;-71
2024/01/06 09:55:38;;;;;;;1.37;1.03;;;8.90;99.90;;;;;;5070932;28;20432;-70
2024/01/06 09:58:05;;;;;;;2.27;1.50;;;8.70;99.90;;;;;;5039672;28;20498;-69
2024/01/06 10:00:30;;;;;;;2.40;1.50;;;8.80;99.90;;;;;;5054338;28;20424;-70
2024/01/06 10:02:56;;;;;;;1.97;1.60;;;8.60;99.90;;;;;;5054309;28;20415;-71
2024/01/06 10:05:22;;;;;;;1.83;1.73;;;8.60;99.90;;;;;;5053580;28;20219;-70
2024/01/06 10:07:48;;;;;;;2.00;1.47;;;8.70;99.90;;;;;;5071997;28;20183;-69
2024/01/06 10:10:14;;;;;;;2.30;1.20;;;8.80;99.90;;;;;;5073850;28;20421;-70
2024/01/06 10:12:41;;;;;;;1.97;1.50;;;9.00;99.90;;;;;;5073632;28;20503;-70
2024/01/06 10:15:11;;;;;;;2.00;1.80;;;9.10;99.90;;;;;;5056806;28;20429;-70
2024/01/06 10:17:38;;;;;;;3.53;1.40;;;8.70;99.90;;;;;;5070987;28;20440;-68
2024/01/06 10:20:08;;;;;;;2.57;1.80;;;8.30;99.90;;;;;;5073529;28;20484;-69
2024/01/06 10:22:41;;;;;;;2.10;1.90;;;8.20;99.90;;;;;;5073934;28;20409;-68
2024/01/06 10:25:09;;;;;;;2.10;1.53;;;8.20;99.90;;;;;;5039181;28;20910;-68
2024/01/06 10:27:41;;;;;;;2.03;1.90;;;8.00;99.90;;;;;;5053557;28;20924;-68
2024/01/06 10:30:08;;;;;;;1.90;1.77;;;8.00;99.90;;;;;;5055664;28;20404;-71
2024/01/06 10:32:34;;;;;;;2.43;1.70;;;8.20;99.90;;;;;;5073362;28;20455;-70
2024/01/06 10:35:01;;;;;;;2.33;2.07;;;8.20;99.90;;;;;;5057693;28;20429;-70
2024/01/06 10:37:27;;;;;;;2.30;1.80;;;8.50;99.90;;;;;;5035716;28;20422;-69
2024/01/06 10:40:13;;;;;;;4.60;1.83;;;8.50;99.90;;;;;;5053347;28;20984;-69
2024/01/06 10:42:40;;;;;;;1.70;1.60;;;8.60;99.90;;;;;;5063710;28;20404;-70
2024/01/06 10:45:13;;;;;;;1.80;1.37;;;8.40;99.90;;;;;;5057187;28;20464;-69
2024/01/06 10:47:43;;;;;;;2.50;1.60;;;8.30;99.90;;;;;;5070124;28;20946;-70
2024/01/06 10:50:09;;;;;;;1.60;1.47;;;8.40;99.90;;;;;;5041222;28;20406;-69
2024/01/06 10:52:36;;;;;;;2.30;1.47;;;8.50;99.90;;;;;;5061446;28;20937;-71
2024/01/06 10:55:02;;;;;;;1.80;1.70;;;8.60;99.90;;;;;;5070232;28;20506;-70
2024/01/06 10:57:31;;;;;;;3.20;1.93;;;8.40;99.90;;;;;;5073548;28;20474;-69
2024/01/06 10:59:58;;;;;;;2.57;2.00;;;8.30;99.90;;;;;;5072936;28;20988;-70
2024/01/06 11:02:25;;;;;;;2.87;2.07;;;8.30;99.90;;;;;;5072648;28;20413;-69
2024/01/06 11:04:51;;;;;;;2.30;1.77;;;8.40;99.90;;;;;;5060036;28;20416;-71
2024/01/06 11:07:19;;;;;;;1.97;1.50;;;8.50;99.90;;;;;;5071885;28;20497;-69
2024/01/06 11:10:02;;;;;;;2.07;1.70;;;8.30;99.90;;;;;;5073527;28;20396;-70
2024/01/06 11:12:28;;;;;;;2.10;1.90;;;8.20;99.90;;;;;;5073393;28;20406;-69
2024/01/06 11:14:54;;;;;;;1.90;1.43;;;8.10;99.90;;;;;;5059163;28;20738;-69
2024/01/06 11:17:53;;;;;;;2.73;1.80;;;8.20;99.90;;;;;;5056126;28;20526;-69
2024/01/06 11:20:20;;;;;;;2.30;1.50;;;8.30;99.90;;;;;;5073392;28;20410;-68
2024/01/06 11:22:45;;;;;;;2.90;2.53;;;8.50;99.90;;;;;;5073063;28;20534;-70
2024/01/06 11:25:16;;;;;;;3.77;2.10;;;8.50;99.90;;;;;;5056542;28;20520;-70
2024/01/06 11:27:45;;;;;;;2.13;1.93;;;8.60;99.90;;;;;;5053189;28;20171;-71
2024/01/06 11:30:23;;;;;;;1.70;1.50;;;8.50;99.90;;;;;;5060536;28;20422;-70
2024/01/06 11:32:53;;;;;;;1.50;1.40;;;8.50;99.90;;;;;;5056476;28;20504;-70
2024/01/06 11:35:21;;;;;;;2.23;1.90;;;8.30;99.90;;;;;;5052690;28;20433;-70
2024/01/06 11:37:47;;;;;;;1.83;1.73;;;8.10;99.90;;;;;;5052935;28;20400;-70
2024/01/06 11:40:21;;;;;;;2.73;2.10;;;7.90;99.90;;;;;;5052610;28;20498;-68
2024/01/06 11:43:05;;;;;;;5.00;1.93;;;7.90;99.90;;;;;;5062497;28;20180;-70
2024/01/06 11:45:32;;;;;;;2.83;2.60;;;8.00;99.90;;;;;;5077158;28;20425;-71
2024/01/06 11:48:05;;;;;;;2.37;2.07;;;8.00;99.90;;;;;;5076957;28;20414;-69
2024/01/06 11:50:36;;;;;;;2.63;2.33;;;8.10;99.90;;;;;;5075501;28;20818;-69
2024/01/06 11:53:02;;;;;;;1.90;1.70;;;8.10;99.90;;;;;;5056909;28;20833;-70
2024/01/06 11:55:28;;;;;;;2.33;2.10;;;8.30;99.90;;;;;;5074951;28;20434;-70
2024/01/06 11:57:56;;;;;;;2.90;2.13;;;8.10;99.90;;;;;;5076657;28;20411;-68
2024/01/06 12:00:21;;;;;;;2.33;2.13;;;8.20;99.90;;;;;;5076401;28;20188;-69
2024/01/06 12:02:47;;;;;;;2.60;2.20;;;8.30;99.90;;;;;;5056356;28;20497;-70
2024/01/06 12:05:17;;;;;;;2.10;1.90;;;8.00;99.90;;;;;;5053231;28;20582;-69
2024/01/06 12:07:52;;;;;;;2.10;1.90;;;8.10;99.90;;;;;;5056122;28;20554;-69
2024/01/06 12:10:21;;;;;;;2.47;2.27;;;8.10;99.90;;;;;;5038603;28;20413;-69
2024/01/06 12:13:00;;;;;;;2.30;2.10;;;8.10;99.90;;;;;;5036126;28;20461;-69
2024/01/06 12:15:27;;;;;;;2.70;2.50;;;8.10;99.90;;;;;;5038531;28;20429;-69
2024/01/06 12:17:53;;;;;;;2.70;2.50;;;8.10;99.90;;;;;;5076237;28;20968;-69
2024/01/06 12:20:18;;;;;;;3.40;2.90;;;8.00;99.90;;;;;;5075951;28;20508;-69
2024/01/06 12:22:44;;;;;;;3.37;3.07;;;8.00;99.90;;;;;;5056457;28;20170;-69
2024/01/06 12:25:10;;;;;;;3.40;3.10;;;8.00;99.90;;;;;;5056200;28;20227;-70
2024/01/06 12:27:41;;;;;;;3.07;2.80;;;8.00;99.90;;;;;;5055759;28;20916;-69
2024/01/06 12:30:15;;;;;;;4.27;3.53;;;7.80;99.90;;;;;;5065131;28;20171;-70
2024/01/06 12:32:42;;;;;;;3.77;3.40;;;7.70;99.90;;;;;;5057003;28;20513;-70
2024/01/06 12:35:08;;;;;;;4.23;3.87;;;7.70;99.90;;;;;;5056249;28;20922;-70
2024/01/06 12:37:35;;;;;;;2.93;2.73;;;7.70;99.90;;;;;;5056492;28;20417;-70
2024/01/06 12:40:01;;;;;;;3.50;3.20;;;7.60;99.90;;;;;;5063299;28;20502;-69
2024/01/06 12:42:27;;;;;;;3.23;3.00;;;7.60;99.90;;;;;;5058930;28;20419;-70
2024/01/06 12:44:52;;;;;;;3.97;3.57;;;7.60;99.90;;;;;;5056152;28;20408;-70
2024/01/06 12:47:18;;;;;;;3.33;2.60;;;7.70;99.90;;;;;;5055641;28;20174;-70
2024/01/06 12:49:45;;;;;;;3.50;3.20;;;7.70;99.90;;;;;;5055766;28;20168;-70
2024/01/06 12:52:11;;;;;;;3.50;3.20;;;7.70;99.90;;;;;;5046922;28;20493;-70
2024/01/06 12:54:36;;;;;;;3.23;3.00;;;7.70;99.90;;;;;;5055281;28;20540;-71